sensor_id;sensor_type;location;lat;lon;timestamp;P1;durP1;ratioP1;P2;durP2;ratioP2
14740;SDS011;7462;53.530;9.414;2023-03-23T00:01:06;14.33;;;11.63;;
14740;SDS011;7462;53.530;9.414;2023-03-23T00:03:35;16.90;;;13.20;;
14740;SDS011;7462;53.530;9.414;2023-03-23T00:06:02;17.17;;;14.00;;
14740;SDS011;7462;53.530;9.414;2023-03-23T00:08:31;15.07;;;13.03;;
14740;SDS011;7462;53.530;9.414;2023-03-23T00:11:02;15.23;;;13.50;;
14740;SDS011;7462;53.530;9.414;2023-03-23T00:13:30;16.87;;;14.07;;
14740;SDS011;7462;53.530;9.414;2023-03-23T00:15:59;16.07;;;13.73;;
14740;SDS011;7462;53.530;9.414;2023-03-23T00:18:27;20.27;;;15.17;;
14740;SDS011;7462;53.530;9.414;2023-03-23T00:20:54;16.37;;;14.70;;
14740;SDS011;7462;53.530;9.414;2023-03-23T00:23:24;17.43;;;15.57;;
14740;SDS011;7462;53.530;9.414;2023-03-23T00:25:52;19.07;;;16.80;;
14740;SDS011;7462;53.530;9.414;2023-03-23T00:28:22;18.23;;;16.33;;
14740;SDS011;7462;53.530;9.414;2023-03-23T00:30:55;20.10;;;16.87;;
14740;SDS011;7462;53.530;9.414;2023-03-23T00:33:26;18.27;;;16.07;;
14740;SDS011;7462;53.530;9.414;2023-03-23T00:35:55;18.33;;;16.37;;
14740;SDS011;7462;53.530;9.414;2023-03-23T00:38:22;18.13;;;16.17;;
14740;SDS011;7462;53.530;9.414;2023-03-23T00:40:52;19.03;;;17.13;;
14740;SDS011;7462;53.530;9.414;2023-03-23T00:43:23;18.17;;;16.27;;
14740;SDS011;7462;53.530;9.414;2023-03-23T00:45:54;18.03;;;16.23;;
14740;SDS011;7462;53.530;9.414;2023-03-23T00:48:22;19.17;;;17.27;;
14740;SDS011;7462;53.530;9.414;2023-03-23T00:50:51;18.43;;;16.63;;
14740;SDS011;7462;53.530;9.414;2023-03-23T00:53:20;18.63;;;16.70;;
14740;SDS011;7462;53.530;9.414;2023-03-23T00:55:48;18.43;;;16.53;;
14740;SDS011;7462;53.530;9.414;2023-03-23T00:58:15;18.43;;;16.63;;
14740;SDS011;7462;53.530;9.414;2023-03-23T01:00:42;18.90;;;17.00;;
14740;SDS011;7462;53.530;9.414;2023-03-23T01:03:10;18.00;;;16.17;;
14740;SDS011;7462;53.530;9.414;2023-03-23T01:05:44;19.03;;;17.10;;
14740;SDS011;7462;53.530;9.414;2023-03-23T01:08:13;18.60;;;16.70;;
14740;SDS011;7462;53.530;9.414;2023-03-23T01:10:41;19.33;;;16.70;;
14740;SDS011;7462;53.530;9.414;2023-03-23T01:13:09;18.27;;;16.37;;
14740;SDS011;7462;53.530;9.414;2023-03-23T01:15:37;19.87;;;17.87;;
14740;SDS011;7462;53.530;9.414;2023-03-23T01:18:04;19.37;;;17.37;;
14740;SDS011;7462;53.530;9.414;2023-03-23T01:20:32;18.77;;;16.87;;
14740;SDS011;7462;53.530;9.414;2023-03-23T01:23:00;18.90;;;17.03;;
14740;SDS011;7462;53.530;9.414;2023-03-23T01:25:28;18.50;;;16.70;;
14740;SDS011;7462;53.530;9.414;2023-03-23T01:27:57;19.90;;;17.90;;
14740;SDS011;7462;53.530;9.414;2023-03-23T01:30:24;19.20;;;17.20;;
14740;SDS011;7462;53.530;9.414;2023-03-23T01:32:52;19.97;;;17.87;;
14740;SDS011;7462;53.530;9.414;2023-03-23T01:35:20;19.27;;;17.33;;
14740;SDS011;7462;53.530;9.414;2023-03-23T01:37:48;18.60;;;16.67;;
14740;SDS011;7462;53.530;9.414;2023-03-23T01:40:16;19.80;;;17.60;;
14740;SDS011;7462;53.530;9.414;2023-03-23T01:42:44;19.80;;;17.70;;
14740;SDS011;7462;53.530;9.414;2023-03-23T01:47:52;20.30;;;18.27;;
14740;SDS011;7462;53.530;9.414;2023-03-23T01:50:34;22.13;;;19.70;;
14740;SDS011;7462;53.530;9.414;2023-03-23T01:53:06;20.43;;;18.53;;
14740;SDS011;7462;53.530;9.414;2023-03-23T01:55:37;20.30;;;18.20;;
14740;SDS011;7462;53.530;9.414;2023-03-23T01:58:07;21.80;;;18.70;;
14740;SDS011;7462;53.530;9.414;2023-03-23T02:00:36;20.37;;;18.37;;
14740;SDS011;7462;53.530;9.414;2023-03-23T02:03:06;22.87;;;20.37;;
14740;SDS011;7462;53.530;9.414;2023-03-23T02:05:36;21.73;;;19.43;;
14740;SDS011;7462;53.530;9.414;2023-03-23T02:08:26;21.93;;;19.73;;
14740;SDS011;7462;53.530;9.414;2023-03-23T02:10:56;21.97;;;19.73;;
14740;SDS011;7462;53.530;9.414;2023-03-23T02:13:23;21.77;;;19.63;;
14740;SDS011;7462;53.530;9.414;2023-03-23T02:15:54;19.90;;;17.83;;
14740;SDS011;7462;53.530;9.414;2023-03-23T02:18:32;21.07;;;18.80;;
14740;SDS011;7462;53.530;9.414;2023-03-23T02:21:13;21.93;;;19.60;;
14740;SDS011;7462;53.530;9.414;2023-03-23T02:27:09;20.73;;;18.73;;
14740;SDS011;7462;53.530;9.414;2023-03-23T02:29:45;21.10;;;18.90;;
14740;SDS011;7462;53.530;9.414;2023-03-23T02:32:21;20.23;;;18.23;;
14740;SDS011;7462;53.530;9.414;2023-03-23T02:35:06;22.47;;;20.17;;
14740;SDS011;7462;53.530;9.414;2023-03-23T02:37:38;21.10;;;18.77;;
14740;SDS011;7462;53.530;9.414;2023-03-23T02:40:11;21.83;;;19.63;;
14740;SDS011;7462;53.530;9.414;2023-03-23T02:42:42;22.67;;;20.47;;
14740;SDS011;7462;53.530;9.414;2023-03-23T02:45:14;22.23;;;19.93;;
14740;SDS011;7462;53.530;9.414;2023-03-23T02:47:44;21.07;;;18.87;;
14740;SDS011;7462;53.530;9.414;2023-03-23T02:50:15;21.50;;;19.20;;
14740;SDS011;7462;53.530;9.414;2023-03-23T02:52:44;21.70;;;19.50;;
14740;SDS011;7462;53.530;9.414;2023-03-23T02:55:13;21.73;;;19.47;;
14740;SDS011;7462;53.530;9.414;2023-03-23T02:57:41;20.93;;;18.73;;
14740;SDS011;7462;53.530;9.414;2023-03-23T03:00:12;21.43;;;19.33;;
14740;SDS011;7462;53.530;9.414;2023-03-23T03:02:42;21.67;;;19.23;;
14740;SDS011;7462;53.530;9.414;2023-03-23T03:05:12;20.40;;;18.30;;
14740;SDS011;7462;53.530;9.414;2023-03-23T03:07:50;20.70;;;18.33;;
14740;SDS011;7462;53.530;9.414;2023-03-23T03:10:25;20.63;;;18.50;;
14740;SDS011;7462;53.530;9.414;2023-03-23T03:12:59;20.83;;;18.67;;
14740;SDS011;7462;53.530;9.414;2023-03-23T03:15:33;21.47;;;19.47;;
14740;SDS011;7462;53.530;9.414;2023-03-23T03:18:05;20.90;;;18.80;;
14740;SDS011;7462;53.530;9.414;2023-03-23T03:20:40;21.20;;;19.07;;
14740;SDS011;7462;53.530;9.414;2023-03-23T03:23:11;21.87;;;19.67;;
14740;SDS011;7462;53.530;9.414;2023-03-23T03:25:43;21.03;;;18.90;;
14740;SDS011;7462;53.530;9.414;2023-03-23T03:28:19;22.03;;;19.03;;
14740;SDS011;7462;53.530;9.414;2023-03-23T03:30:51;21.00;;;18.83;;
14740;SDS011;7462;53.530;9.414;2023-03-23T03:33:21;21.17;;;18.83;;
14740;SDS011;7462;53.530;9.414;2023-03-23T03:35:54;21.27;;;18.97;;
14740;SDS011;7462;53.530;9.414;2023-03-23T03:38:22;21.40;;;19.33;;
14740;SDS011;7462;53.530;9.414;2023-03-23T03:40:51;20.13;;;18.10;;
14740;SDS011;7462;53.530;9.414;2023-03-23T03:43:19;20.77;;;18.70;;
14740;SDS011;7462;53.530;9.414;2023-03-23T03:45:46;18.93;;;17.13;;
14740;SDS011;7462;53.530;9.414;2023-03-23T03:48:13;20.10;;;17.90;;
14740;SDS011;7462;53.530;9.414;2023-03-23T03:50:40;18.27;;;16.40;;
14740;SDS011;7462;53.530;9.414;2023-03-23T03:53:09;20.50;;;18.40;;
14740;SDS011;7462;53.530;9.414;2023-03-23T03:55:36;20.17;;;18.13;;
14740;SDS011;7462;53.530;9.414;2023-03-23T03:58:08;19.60;;;17.80;;
14740;SDS011;7462;53.530;9.414;2023-03-23T04:01:11;20.17;;;18.27;;
14740;SDS011;7462;53.530;9.414;2023-03-23T04:03:39;19.57;;;17.57;;
14740;SDS011;7462;53.530;9.414;2023-03-23T04:06:14;19.80;;;17.13;;
14740;SDS011;7462;53.530;9.414;2023-03-23T04:08:42;19.43;;;17.37;;
14740;SDS011;7462;53.530;9.414;2023-03-23T04:11:12;19.67;;;17.63;;
14740;SDS011;7462;53.530;9.414;2023-03-23T04:13:41;19.10;;;17.20;;
14740;SDS011;7462;53.530;9.414;2023-03-23T04:16:18;20.03;;;18.00;;
14740;SDS011;7462;53.530;9.414;2023-03-23T04:18:47;20.07;;;17.37;;
14740;SDS011;7462;53.530;9.414;2023-03-23T04:21:16;18.33;;;16.47;;
14740;SDS011;7462;53.530;9.414;2023-03-23T04:23:47;21.20;;;17.53;;
14740;SDS011;7462;53.530;9.414;2023-03-23T04:26:14;20.50;;;18.40;;
14740;SDS011;7462;53.530;9.414;2023-03-23T04:28:46;19.30;;;17.40;;
14740;SDS011;7462;53.530;9.414;2023-03-23T04:31:33;20.07;;;18.07;;
14740;SDS011;7462;53.530;9.414;2023-03-23T04:34:21;19.00;;;17.10;;
14740;SDS011;7462;53.530;9.414;2023-03-23T04:36:51;18.87;;;16.87;;
14740;SDS011;7462;53.530;9.414;2023-03-23T04:39:24;19.03;;;17.07;;
14740;SDS011;7462;53.530;9.414;2023-03-23T04:41:54;20.20;;;16.97;;
14740;SDS011;7462;53.530;9.414;2023-03-23T04:44:44;20.43;;;17.53;;
14740;SDS011;7462;53.530;9.414;2023-03-23T04:47:20;19.87;;;17.87;;
14740;SDS011;7462;53.530;9.414;2023-03-23T04:49:53;19.30;;;17.53;;
14740;SDS011;7462;53.530;9.414;2023-03-23T04:52:26;20.37;;;17.33;;
14740;SDS011;7462;53.530;9.414;2023-03-23T04:55:01;19.83;;;17.73;;
14740;SDS011;7462;53.530;9.414;2023-03-23T04:57:28;21.30;;;18.77;;
14740;SDS011;7462;53.530;9.414;2023-03-23T05:00:15;18.90;;;17.00;;
14740;SDS011;7462;53.530;9.414;2023-03-23T05:02:48;20.97;;;18.73;;
14740;SDS011;7462;53.530;9.414;2023-03-23T05:05:19;19.93;;;17.83;;
14740;SDS011;7462;53.530;9.414;2023-03-23T05:07:48;20.67;;;17.10;;
14740;SDS011;7462;53.530;9.414;2023-03-23T05:10:20;20.80;;;17.73;;
14740;SDS011;7462;53.530;9.414;2023-03-23T05:12:49;18.60;;;16.80;;
14740;SDS011;7462;53.530;9.414;2023-03-23T05:15:17;20.33;;;17.03;;
14740;SDS011;7462;53.530;9.414;2023-03-23T05:17:45;18.43;;;16.50;;
14740;SDS011;7462;53.530;9.414;2023-03-23T05:20:17;20.37;;;16.80;;
14740;SDS011;7462;53.530;9.414;2023-03-23T05:22:48;19.23;;;17.23;;
14740;SDS011;7462;53.530;9.414;2023-03-23T05:25:22;18.20;;;16.40;;
14740;SDS011;7462;53.530;9.414;2023-03-23T05:27:57;18.13;;;16.13;;
14740;SDS011;7462;53.530;9.414;2023-03-23T05:30:44;18.73;;;16.67;;
14740;SDS011;7462;53.530;9.414;2023-03-23T05:33:13;18.27;;;16.47;;
14740;SDS011;7462;53.530;9.414;2023-03-23T05:36:09;19.70;;;15.27;;
14740;SDS011;7462;53.530;9.414;2023-03-23T05:38:57;18.07;;;16.17;;
14740;SDS011;7462;53.530;9.414;2023-03-23T05:41:39;20.03;;;16.17;;
14740;SDS011;7462;53.530;9.414;2023-03-23T05:44:06;19.43;;;15.77;;
14740;SDS011;7462;53.530;9.414;2023-03-23T05:46:45;17.23;;;15.13;;
14740;SDS011;7462;53.530;9.414;2023-03-23T05:49:12;16.27;;;14.50;;
14740;SDS011;7462;53.530;9.414;2023-03-23T05:51:41;16.53;;;14.40;;
14740;SDS011;7462;53.530;9.414;2023-03-23T05:54:09;17.60;;;13.77;;
14740;SDS011;7462;53.530;9.414;2023-03-23T05:56:37;15.80;;;14.13;;
14740;SDS011;7462;53.530;9.414;2023-03-23T05:59:26;14.87;;;13.23;;
14740;SDS011;7462;53.530;9.414;2023-03-23T06:01:55;15.77;;;14.17;;
14740;SDS011;7462;53.530;9.414;2023-03-23T06:04:22;14.53;;;12.93;;
14740;SDS011;7462;53.530;9.414;2023-03-23T06:07:08;15.67;;;13.37;;
14740;SDS011;7462;53.530;9.414;2023-03-23T06:09:40;14.97;;;13.37;;
14740;SDS011;7462;53.530;9.414;2023-03-23T06:12:29;14.93;;;12.70;;
14740;SDS011;7462;53.530;9.414;2023-03-23T06:15:17;16.70;;;13.17;;
14740;SDS011;7462;53.530;9.414;2023-03-23T06:18:06;13.67;;;12.20;;
14740;SDS011;7462;53.530;9.414;2023-03-23T06:20:54;13.83;;;11.90;;
14740;SDS011;7462;53.530;9.414;2023-03-23T06:23:28;15.57;;;11.70;;
14740;SDS011;7462;53.530;9.414;2023-03-23T06:25:57;15.33;;;12.13;;
14740;SDS011;7462;53.530;9.414;2023-03-23T06:28:28;12.83;;;11.33;;
14740;SDS011;7462;53.530;9.414;2023-03-23T06:30:55;13.37;;;11.43;;
14740;SDS011;7462;53.530;9.414;2023-03-23T06:33:25;14.67;;;10.77;;
14740;SDS011;7462;53.530;9.414;2023-03-23T06:36:10;12.87;;;10.97;;
14740;SDS011;7462;53.530;9.414;2023-03-23T06:38:45;13.00;;;10.37;;
14740;SDS011;7462;53.530;9.414;2023-03-23T06:41:15;13.37;;;9.50;;
14740;SDS011;7462;53.530;9.414;2023-03-23T06:43:43;12.47;;;10.37;;
14740;SDS011;7462;53.530;9.414;2023-03-23T06:46:13;11.73;;;10.17;;
14740;SDS011;7462;53.530;9.414;2023-03-23T06:48:40;11.10;;;9.93;;
14740;SDS011;7462;53.530;9.414;2023-03-23T06:51:11;12.47;;;9.57;;
14740;SDS011;7462;53.530;9.414;2023-03-23T06:53:41;11.00;;;9.70;;
14740;SDS011;7462;53.530;9.414;2023-03-23T06:56:11;11.20;;;9.50;;
14740;SDS011;7462;53.530;9.414;2023-03-23T06:58:40;11.77;;;8.83;;
14740;SDS011;7462;53.530;9.414;2023-03-23T07:01:09;9.87;;;8.87;;
14740;SDS011;7462;53.530;9.414;2023-03-23T07:03:44;10.07;;;8.53;;
14740;SDS011;7462;53.530;9.414;2023-03-23T07:06:16;10.20;;;9.17;;
14740;SDS011;7462;53.530;9.414;2023-03-23T07:08:49;10.93;;;8.30;;
14740;SDS011;7462;53.530;9.414;2023-03-23T07:11:21;9.50;;;8.57;;
14740;SDS011;7462;53.530;9.414;2023-03-23T07:13:48;9.73;;;8.13;;
14740;SDS011;7462;53.530;9.414;2023-03-23T07:16:18;9.83;;;8.83;;
14740;SDS011;7462;53.530;9.414;2023-03-23T07:18:46;11.07;;;8.07;;
14740;SDS011;7462;53.530;9.414;2023-03-23T07:21:14;10.33;;;8.47;;
14740;SDS011;7462;53.530;9.414;2023-03-23T07:23:41;9.23;;;7.33;;
14740;SDS011;7462;53.530;9.414;2023-03-23T07:26:11;9.97;;;7.67;;
14740;SDS011;7462;53.530;9.414;2023-03-23T07:28:46;8.53;;;7.30;;
14740;SDS011;7462;53.530;9.414;2023-03-23T07:31:23;10.87;;;7.97;;
14740;SDS011;7462;53.530;9.414;2023-03-23T07:33:51;11.00;;;7.40;;
14740;SDS011;7462;53.530;9.414;2023-03-23T07:36:18;7.47;;;3.97;;
14740;SDS011;7462;53.530;9.414;2023-03-23T07:38:46;3.53;;;1.97;;
14740;SDS011;7462;53.530;9.414;2023-03-23T07:41:14;4.17;;;1.73;;
14740;SDS011;7462;53.530;9.414;2023-03-23T07:43:43;3.43;;;1.60;;
14740;SDS011;7462;53.530;9.414;2023-03-23T07:46:31;4.60;;;2.20;;
14740;SDS011;7462;53.530;9.414;2023-03-23T07:49:09;4.10;;;2.13;;
14740;SDS011;7462;53.530;9.414;2023-03-23T07:51:42;2.57;;;2.23;;
14740;SDS011;7462;53.530;9.414;2023-03-23T07:54:11;4.20;;;2.93;;
14740;SDS011;7462;53.530;9.414;2023-03-23T07:56:54;5.00;;;3.73;;
14740;SDS011;7462;53.530;9.414;2023-03-23T07:59:24;5.10;;;3.97;;
14740;SDS011;7462;53.530;9.414;2023-03-23T08:01:54;5.47;;;4.53;;
14740;SDS011;7462;53.530;9.414;2023-03-23T08:04:32;8.33;;;4.80;;
14740;SDS011;7462;53.530;9.414;2023-03-23T08:07:12;6.07;;;4.47;;
14740;SDS011;7462;53.530;9.414;2023-03-23T08:09:50;6.83;;;4.03;;
14740;SDS011;7462;53.530;9.414;2023-03-23T08:12:36;6.03;;;3.83;;
14740;SDS011;7462;53.530;9.414;2023-03-23T08:15:22;6.90;;;4.50;;
14740;SDS011;7462;53.530;9.414;2023-03-23T08:18:11;6.87;;;3.50;;
14740;SDS011;7462;53.530;9.414;2023-03-23T08:21:17;5.77;;;3.70;;
14740;SDS011;7462;53.530;9.414;2023-03-23T08:24:04;4.90;;;3.07;;
14740;SDS011;7462;53.530;9.414;2023-03-23T08:26:52;7.00;;;2.93;;
14740;SDS011;7462;53.530;9.414;2023-03-23T08:29:34;5.17;;;2.97;;
14740;SDS011;7462;53.530;9.414;2023-03-23T08:32:14;5.73;;;3.10;;
14740;SDS011;7462;53.530;9.414;2023-03-23T08:34:53;5.40;;;2.70;;
14740;SDS011;7462;53.530;9.414;2023-03-23T08:37:49;6.97;;;3.10;;
14740;SDS011;7462;53.530;9.414;2023-03-23T08:40:35;5.07;;;2.90;;
14740;SDS011;7462;53.530;9.414;2023-03-23T08:43:22;5.73;;;2.93;;
14740;SDS011;7462;53.530;9.414;2023-03-23T08:46:07;4.80;;;2.97;;
14740;SDS011;7462;53.530;9.414;2023-03-23T08:48:56;5.60;;;3.20;;
14740;SDS011;7462;53.530;9.414;2023-03-23T08:51:43;5.83;;;3.23;;
14740;SDS011;7462;53.530;9.414;2023-03-23T08:54:30;7.67;;;3.73;;
14740;SDS011;7462;53.530;9.414;2023-03-23T08:57:18;8.33;;;4.10;;
14740;SDS011;7462;53.530;9.414;2023-03-23T09:00:08;9.20;;;3.50;;
14740;SDS011;7462;53.530;9.414;2023-03-23T09:03:00;11.20;;;3.90;;
14740;SDS011;7462;53.530;9.414;2023-03-23T09:05:48;6.67;;;3.07;;
14740;SDS011;7462;53.530;9.414;2023-03-23T09:08:22;8.43;;;2.97;;
14740;SDS011;7462;53.530;9.414;2023-03-23T09:10:50;10.37;;;3.07;;
14740;SDS011;7462;53.530;9.414;2023-03-23T09:13:17;7.23;;;2.43;;
14740;SDS011;7462;53.530;9.414;2023-03-23T09:15:44;13.33;;;3.30;;
14740;SDS011;7462;53.530;9.414;2023-03-23T09:18:11;10.50;;;3.07;;
14740;SDS011;7462;53.530;9.414;2023-03-23T09:20:38;8.43;;;2.50;;
14740;SDS011;7462;53.530;9.414;2023-03-23T09:23:07;6.83;;;2.00;;
14740;SDS011;7462;53.530;9.414;2023-03-23T09:25:35;9.00;;;2.30;;
14740;SDS011;7462;53.530;9.414;2023-03-23T09:28:03;6.80;;;2.20;;
14740;SDS011;7462;53.530;9.414;2023-03-23T09:30:30;9.07;;;2.17;;
14740;SDS011;7462;53.530;9.414;2023-03-23T09:32:59;10.23;;;2.40;;
14740;SDS011;7462;53.530;9.414;2023-03-23T09:35:27;7.97;;;2.67;;
14740;SDS011;7462;53.530;9.414;2023-03-23T09:37:56;6.47;;;2.20;;
14740;SDS011;7462;53.530;9.414;2023-03-23T09:40:26;7.73;;;2.33;;
14740;SDS011;7462;53.530;9.414;2023-03-23T09:43:07;7.33;;;2.17;;
14740;SDS011;7462;53.530;9.414;2023-03-23T09:46:06;7.43;;;2.27;;
14740;SDS011;7462;53.530;9.414;2023-03-23T09:48:44;10.37;;;2.33;;
14740;SDS011;7462;53.530;9.414;2023-03-23T09:51:20;9.13;;;2.47;;
14740;SDS011;7462;53.530;9.414;2023-03-23T09:53:55;9.63;;;2.10;;
14740;SDS011;7462;53.530;9.414;2023-03-23T09:56:28;7.63;;;2.03;;
14740;SDS011;7462;53.530;9.414;2023-03-23T09:59:00;8.87;;;2.43;;
14740;SDS011;7462;53.530;9.414;2023-03-23T10:01:33;6.03;;;2.10;;
14740;SDS011;7462;53.530;9.414;2023-03-23T10:04:03;8.37;;;2.43;;
14740;SDS011;7462;53.530;9.414;2023-03-23T10:06:36;9.33;;;2.80;;
14740;SDS011;7462;53.530;9.414;2023-03-23T10:09:04;8.83;;;2.57;;
14740;SDS011;7462;53.530;9.414;2023-03-23T10:11:35;9.57;;;2.50;;
14740;SDS011;7462;53.530;9.414;2023-03-23T10:14:17;7.93;;;3.03;;
14740;SDS011;7462;53.530;9.414;2023-03-23T10:16:54;9.63;;;2.67;;
14740;SDS011;7462;53.530;9.414;2023-03-23T10:19:36;8.47;;;2.93;;
14740;SDS011;7462;53.530;9.414;2023-03-23T10:22:08;10.47;;;2.57;;
14740;SDS011;7462;53.530;9.414;2023-03-23T10:24:39;12.27;;;3.90;;
14740;SDS011;7462;53.530;9.414;2023-03-23T10:27:18;10.47;;;2.40;;
14740;SDS011;7462;53.530;9.414;2023-03-23T10:29:53;10.73;;;2.57;;
14740;SDS011;7462;53.530;9.414;2023-03-23T10:32:36;13.00;;;3.10;;
14740;SDS011;7462;53.530;9.414;2023-03-23T10:35:09;13.33;;;3.33;;
14740;SDS011;7462;53.530;9.414;2023-03-23T10:37:41;12.00;;;3.30;;
14740;SDS011;7462;53.530;9.414;2023-03-23T10:40:13;12.07;;;3.30;;
14740;SDS011;7462;53.530;9.414;2023-03-23T10:42:42;11.93;;;2.90;;
14740;SDS011;7462;53.530;9.414;2023-03-23T10:45:13;8.80;;;2.83;;
14740;SDS011;7462;53.530;9.414;2023-03-23T10:47:46;16.77;;;3.13;;
14740;SDS011;7462;53.530;9.414;2023-03-23T10:50:18;14.20;;;3.03;;
14740;SDS011;7462;53.530;9.414;2023-03-23T10:52:50;14.10;;;3.50;;
14740;SDS011;7462;53.530;9.414;2023-03-23T10:55:20;9.23;;;2.67;;
14740;SDS011;7462;53.530;9.414;2023-03-23T10:57:58;10.03;;;3.03;;
14740;SDS011;7462;53.530;9.414;2023-03-23T11:00:29;10.93;;;3.23;;
14740;SDS011;7462;53.530;9.414;2023-03-23T11:02:57;17.63;;;3.50;;
14740;SDS011;7462;53.530;9.414;2023-03-23T11:05:31;17.17;;;3.77;;
14740;SDS011;7462;53.530;9.414;2023-03-23T11:08:01;17.90;;;3.37;;
14740;SDS011;7462;53.530;9.414;2023-03-23T11:10:34;16.30;;;3.20;;
14740;SDS011;7462;53.530;9.414;2023-03-23T11:13:03;15.57;;;3.30;;
14740;SDS011;7462;53.530;9.414;2023-03-23T11:15:37;11.70;;;3.00;;
14740;SDS011;7462;53.530;9.414;2023-03-23T11:18:09;13.37;;;3.00;;
14740;SDS011;7462;53.530;9.414;2023-03-23T11:20:41;10.60;;;2.80;;
14740;SDS011;7462;53.530;9.414;2023-03-23T11:23:17;16.47;;;3.30;;
14740;SDS011;7462;53.530;9.414;2023-03-23T11:25:52;11.60;;;3.20;;
14740;SDS011;7462;53.530;9.414;2023-03-23T11:28:29;11.07;;;2.57;;
14740;SDS011;7462;53.530;9.414;2023-03-23T11:31:01;15.33;;;3.30;;
14740;SDS011;7462;53.530;9.414;2023-03-23T11:33:34;13.30;;;3.20;;
14740;SDS011;7462;53.530;9.414;2023-03-23T11:36:04;11.53;;;2.57;;
14740;SDS011;7462;53.530;9.414;2023-03-23T11:38:33;12.00;;;3.20;;
14740;SDS011;7462;53.530;9.414;2023-03-23T11:41:01;11.20;;;2.90;;
14740;SDS011;7462;53.530;9.414;2023-03-23T11:43:37;10.10;;;2.87;;
14740;SDS011;7462;53.530;9.414;2023-03-23T11:46:11;9.43;;;2.60;;
14740;SDS011;7462;53.530;9.414;2023-03-23T11:48:44;10.13;;;2.97;;
14740;SDS011;7462;53.530;9.414;2023-03-23T11:51:17;8.33;;;3.20;;
14740;SDS011;7462;53.530;9.414;2023-03-23T11:53:56;11.77;;;3.00;;
14740;SDS011;7462;53.530;9.414;2023-03-23T11:56:28;9.37;;;3.17;;
14740;SDS011;7462;53.530;9.414;2023-03-23T11:58:57;9.60;;;3.27;;
14740;SDS011;7462;53.530;9.414;2023-03-23T12:07:16;9.63;;;3.27;;
14740;SDS011;7462;53.530;9.414;2023-03-23T12:10:07;9.90;;;3.23;;
14740;SDS011;7462;53.530;9.414;2023-03-23T12:12:46;6.80;;;3.00;;
14740;SDS011;7462;53.530;9.414;2023-03-23T12:15:20;10.13;;;3.13;;
14740;SDS011;7462;53.530;9.414;2023-03-23T12:17:57;9.30;;;3.20;;
14740;SDS011;7462;53.530;9.414;2023-03-23T12:20:34;9.60;;;3.67;;
14740;SDS011;7462;53.530;9.414;2023-03-23T12:23:13;9.73;;;2.87;;
14740;SDS011;7462;53.530;9.414;2023-03-23T12:31:51;9.00;;;3.23;;
14740;SDS011;7462;53.530;9.414;2023-03-23T12:34:30;12.47;;;3.50;;
14740;SDS011;7462;53.530;9.414;2023-03-23T12:37:10;8.97;;;3.20;;
14740;SDS011;7462;53.530;9.414;2023-03-23T12:40:01;12.67;;;3.80;;
14740;SDS011;7462;53.530;9.414;2023-03-23T12:42:47;9.27;;;3.27;;
14740;SDS011;7462;53.530;9.414;2023-03-23T12:45:25;11.07;;;3.80;;
14740;SDS011;7462;53.530;9.414;2023-03-23T12:48:11;11.23;;;3.57;;
14740;SDS011;7462;53.530;9.414;2023-03-23T12:50:43;12.23;;;3.90;;
14740;SDS011;7462;53.530;9.414;2023-03-23T12:53:14;10.77;;;3.30;;
14740;SDS011;7462;53.530;9.414;2023-03-23T12:55:50;8.37;;;3.30;;
14740;SDS011;7462;53.530;9.414;2023-03-23T12:58:32;9.77;;;3.20;;
14740;SDS011;7462;53.530;9.414;2023-03-23T13:01:06;9.67;;;3.90;;
14740;SDS011;7462;53.530;9.414;2023-03-23T13:03:38;10.07;;;3.70;;
14740;SDS011;7462;53.530;9.414;2023-03-23T13:06:12;12.03;;;3.37;;
14740;SDS011;7462;53.530;9.414;2023-03-23T13:08:46;9.67;;;3.27;;
14740;SDS011;7462;53.530;9.414;2023-03-23T13:11:17;7.70;;;3.00;;
14740;SDS011;7462;53.530;9.414;2023-03-23T13:13:48;8.13;;;2.80;;
14740;SDS011;7462;53.530;9.414;2023-03-23T13:16:24;8.90;;;2.73;;
14740;SDS011;7462;53.530;9.414;2023-03-23T13:18:59;9.80;;;2.90;;
14740;SDS011;7462;53.530;9.414;2023-03-23T13:21:33;6.43;;;2.73;;
14740;SDS011;7462;53.530;9.414;2023-03-23T13:24:08;9.83;;;3.30;;
14740;SDS011;7462;53.530;9.414;2023-03-23T13:26:39;7.47;;;2.80;;
14740;SDS011;7462;53.530;9.414;2023-03-23T13:29:09;9.20;;;2.70;;
14740;SDS011;7462;53.530;9.414;2023-03-23T13:31:40;7.57;;;2.60;;
14740;SDS011;7462;53.530;9.414;2023-03-23T13:34:12;6.97;;;2.60;;
14740;SDS011;7462;53.530;9.414;2023-03-23T13:36:44;9.37;;;2.43;;
14740;SDS011;7462;53.530;9.414;2023-03-23T13:39:21;9.30;;;3.00;;
14740;SDS011;7462;53.530;9.414;2023-03-23T13:42:05;6.47;;;2.73;;
14740;SDS011;7462;53.530;9.414;2023-03-23T13:44:54;8.20;;;2.50;;
14740;SDS011;7462;53.530;9.414;2023-03-23T13:47:36;6.43;;;2.10;;
14740;SDS011;7462;53.530;9.414;2023-03-23T13:50:09;5.57;;;1.60;;
14740;SDS011;7462;53.530;9.414;2023-03-23T13:52:46;5.43;;;1.87;;
14740;SDS011;7462;53.530;9.414;2023-03-23T13:55:19;3.93;;;1.70;;
14740;SDS011;7462;53.530;9.414;2023-03-23T13:58:09;2.47;;;1.33;;
14740;SDS011;7462;53.530;9.414;2023-03-23T14:00:48;4.07;;;1.40;;
14740;SDS011;7462;53.530;9.414;2023-03-23T14:03:18;3.70;;;1.47;;
14740;SDS011;7462;53.530;9.414;2023-03-23T14:06:02;2.67;;;1.23;;
14740;SDS011;7462;53.530;9.414;2023-03-23T14:08:43;4.07;;;1.40;;
14740;SDS011;7462;53.530;9.414;2023-03-23T14:11:15;4.27;;;1.50;;
14740;SDS011;7462;53.530;9.414;2023-03-23T14:13:46;6.03;;;1.50;;
14740;SDS011;7462;53.530;9.414;2023-03-23T14:16:25;3.50;;;1.67;;
14740;SDS011;7462;53.530;9.414;2023-03-23T14:18:58;5.03;;;1.93;;
14740;SDS011;7462;53.530;9.414;2023-03-23T14:21:33;4.43;;;1.60;;
14740;SDS011;7462;53.530;9.414;2023-03-23T14:24:08;4.80;;;1.70;;
14740;SDS011;7462;53.530;9.414;2023-03-23T14:26:37;5.20;;;1.57;;
14740;SDS011;7462;53.530;9.414;2023-03-23T14:29:05;4.70;;;1.80;;
14740;SDS011;7462;53.530;9.414;2023-03-23T14:31:34;3.93;;;1.70;;
14740;SDS011;7462;53.530;9.414;2023-03-23T14:34:03;4.90;;;1.80;;
14740;SDS011;7462;53.530;9.414;2023-03-23T14:36:36;6.33;;;1.83;;
14740;SDS011;7462;53.530;9.414;2023-03-23T14:39:06;5.63;;;2.10;;
14740;SDS011;7462;53.530;9.414;2023-03-23T14:41:40;3.87;;;1.90;;
14740;SDS011;7462;53.530;9.414;2023-03-23T14:44:10;6.80;;;2.10;;
14740;SDS011;7462;53.530;9.414;2023-03-23T14:46:41;7.40;;;2.17;;
14740;SDS011;7462;53.530;9.414;2023-03-23T14:49:10;8.77;;;2.63;;
14740;SDS011;7462;53.530;9.414;2023-03-23T14:51:46;6.73;;;2.13;;
14740;SDS011;7462;53.530;9.414;2023-03-23T14:54:15;4.93;;;2.20;;
14740;SDS011;7462;53.530;9.414;2023-03-23T14:56:49;7.67;;;2.33;;
14740;SDS011;7462;53.530;9.414;2023-03-23T14:59:16;7.47;;;2.40;;
14740;SDS011;7462;53.530;9.414;2023-03-23T15:01:44;5.87;;;2.47;;
14740;SDS011;7462;53.530;9.414;2023-03-23T15:04:14;8.37;;;2.60;;
14740;SDS011;7462;53.530;9.414;2023-03-23T15:06:46;7.13;;;2.37;;
14740;SDS011;7462;53.530;9.414;2023-03-23T15:09:18;6.80;;;2.33;;
14740;SDS011;7462;53.530;9.414;2023-03-23T15:11:51;5.10;;;2.40;;
14740;SDS011;7462;53.530;9.414;2023-03-23T15:14:22;7.83;;;2.80;;
14740;SDS011;7462;53.530;9.414;2023-03-23T15:16:53;7.63;;;2.40;;
14740;SDS011;7462;53.530;9.414;2023-03-23T15:19:23;4.07;;;2.17;;
14740;SDS011;7462;53.530;9.414;2023-03-23T15:21:54;7.60;;;2.20;;
14740;SDS011;7462;53.530;9.414;2023-03-23T15:24:27;6.53;;;2.53;;
14740;SDS011;7462;53.530;9.414;2023-03-23T15:27:12;4.63;;;2.33;;
14740;SDS011;7462;53.530;9.414;2023-03-23T15:29:47;7.83;;;2.57;;
14740;SDS011;7462;53.530;9.414;2023-03-23T15:32:20;9.77;;;2.67;;
14740;SDS011;7462;53.530;9.414;2023-03-23T15:34:48;6.40;;;2.47;;
14740;SDS011;7462;53.530;9.414;2023-03-23T15:37:18;10.17;;;2.33;;
14740;SDS011;7462;53.530;9.414;2023-03-23T15:39:48;3.93;;;2.23;;
14740;SDS011;7462;53.530;9.414;2023-03-23T15:42:21;5.83;;;2.27;;
14740;SDS011;7462;53.530;9.414;2023-03-23T15:45:02;6.97;;;2.40;;